Weather observations for the past three days for
Watonga, Watonga Airport
Metric (Imperial)
Date Time (cdt) Wind (kph) Vis. (km) Weather Sky Cond. Temperature (ºC) Relative Humidity Wind Chill (°C) Heat Index (°C) Pressure Precipitation (cm)
Air Dwpt 6 hour altimeter (cm) sea level (mb) 1 hr 3 hr 6 hr
Max. Min.
08 08:15 S 22 16.09 Fair CLR 16.4 9.2 63% 76.02 0.0
08 07:55 S 19 16.09 Fair CLR 15.3 9.5 69% 76.02 0.0
08 07:35 S 19 16.09 Fair CLR 14.3 9.4 73% 76.02 0.0
08 07:15 S 15 16.09 Fair CLR 14 9 72% 76.02 0.0
08 06:55 S 15 16.09 Fair CLR 13.8 9.3 15.8 13.6 74% 76 0.0
08 06:35 S 15 16.09 Fair CLR 13.9 9.2 74% 76 0.0
08 06:15 S 15 16.09 Fair CLR 13.9 9.3 74% 76 0.0
08 05:55 S 17 16.09 Fair CLR 14.1 9.3 73% 76 0.0
08 05:35 SW 17 16.09 Fair CLR 14.2 9.2 72% 76 0.0
08 05:15 SW 22 16.09 Fair CLR 14.3 9.3 72% 76 0.0
08 04:55 SW 24 G 33 16.09 Fair CLR 14.4 9.1 71% 76 0.0
08 04:35 S 22 16.09 Fair CLR 14.3 8.8 70% 76 0.0
08 04:15 S 19 16.09 Fair CLR 14.2 8.5 69% 76 0.0
08 03:55 SW 17 16.09 Fair CLR 14.1 8.2 68% 76 0.0
08 03:35 S 13 16.09 Fair CLR 13.7 7.8 68% 76 0.0
08 03:15 S 9 16.09 Fair CLR 13.9 7.8 67% 76 0.0
08 02:55 S 15 16.09 Fair CLR 14.5 7.7 64% 76.02 0.0
08 02:35 S 13 16.09 Fair CLR 14.5 7.3 62% 76.02 0.0
08 02:15 S 19 16.09 Fair CLR 15.1 7 59% 76.05 0.0
08 01:55 S 17 16.09 Fair CLR 15.4 6.9 57% 76.05 0.0
08 01:35 S 15 16.09 Fair CLR 15.2 6.6 57% 76.07 0.0
08 01:15 S 15 16.09 Fair CLR 15.6 6.3 54% 76.07 0.0
08 00:55 S 15 16.09 Fair CLR 15.5 5.8 24.9 15.3 53% 76.07 0.0
08 00:35 S 17 16.09 Fair CLR 16 5.1 49% 76.07 0.0
08 00:15 S 19 16.09 Fair CLR 16.1 4.2 45% 76.1 0.0
07 23:55 S 13 16.09 Fair CLR 16 4 45% 76.07 0.0
07 23:35 S 17 16.09 Fair CLR 16.2 3.2 42% 76.1 0.0
07 23:15 S 13 16.09 Fair CLR 16.1 2.6 41% 76.1 0.0
07 22:55 S 11 16.09 Fair CLR 16.5 2.2 38% 76.1 0.0
07 22:35 S 13 16.09 Fair CLR 16.8 1.9 37% 76.1 0.0
07 22:15 S 13 16.09 Fair CLR 17.1 1.7 36% 76.1 0.0
07 21:55 S 13 16.09 Fair CLR 17.6 1.7 35% 76.07 0.0
07 21:35 S 11 16.09 Fair CLR 17.7 1.7 34% 76.07 0.0
07 21:15 S 9 16.09 Fair CLR 19.1 1.5 31% 76.05 0.0
07 20:55 S 15 16.09 Fair CLR 20.1 1.4 29% 76.05 0.0
07 20:35 S 11 16.09 Fair CLR 20.8 1.8 28% 76.05 0.0
07 20:15 S 13 16.09 Fair CLR 21.8 1.6 26% 76.02 0.0
07 19:55 S 15 16.09 Fair CLR 22.9 1.4 24% 76 0.0
07 19:35 S 19 16.09 Fair CLR 24 2 24% 25 76 0.0
07 19:15 S 20 16.09 Fair CLR 24.7 1.8 22% 25 76 0.0
07 18:55 S 17 16.09 Fair CLR 24.7 2.3 26 20 23% 25 76 0.0
07 18:35 S 13 16.09 Fair CLR 24.9 1.9 22% 25 76 0.0
07 18:15 S 11 16.09 Fair CLR 25.2 2.4 23% 25 76.02 0.0
07 17:55 SW 13 16.09 Fair CLR 25 2.1 22% 25 76.02 0.0
07 17:35 SW 19 16.09 Fair CLR 25.2 1.7 22% 25 76.05 0.0
07 17:15 W 15 16.09 Fair CLR 25.3 1.4 21% 25 76.05 0.0
07 16:55 NW 13 16.09 Fair CLR 25.3 1.7 21% 25 76.07 0.0
07 16:35 W 19 G 26 16.09 Fair CLR 24.3 2 23% 25 76.1 0.0
07 16:15 W 15 G 33 16.09 Fair CLR 24.6 2.5 24% 25 76.12 0.0
07 15:55 S 9 16.09 Fair CLR 24.1 2.1 24% 25 76.15 0.0
07 15:35 SW 15 G 37 16.09 Fair CLR 24.1 1.8 23% 25 76.17 0.0
07 15:15 W 19 G 28 16.09 Fair CLR 24.3 1 22% 25 76.2 0.0
07 14:55 W 11 16.09 Fair CLR 23.5 1.3 23% 76.23 0.0
07 14:35 W 15 16.09 Fair CLR 23.7 1.8 24% 76.25 0.0
07 14:15 SW 13 G 26 16.09 Fair CLR 22.5 2 26% 76.28 0.0
07 13:55 SW 19 G 28 16.09 Fair CLR 21.7 0.8 25% 76.3 0.0
07 13:35 SW 17 G 31 16.09 Fair CLR 21.7 1.3 26% 76.33 0.0
07 13:15 SW 24 G 35 16.09 Fair CLR 20.9 1.5 28% 76.35 0.0
07 12:55 W 19 16.09 Fair CLR 20.6 1.3 20.8 4.1 28% 76.38 0.0
07 12:35 SW 19 G 33 16.09 Fair CLR 20.1 2.2 31% 76.4 0.0
07 12:15 W 17 16.09 Fair CLR 19.1 2.2 33% 76.43 0.0
07 11:55 SW 24 16.09 Fair CLR 18.7 3.7 37% 76.45 0.0
07 11:35 SW 24 16.09 Fair CLR 17.6 3.8 40% 76.5 0.0
07 11:15 SW 19 G 30 16.09 Fair CLR 17 3.8 42% 76.5 0.0
07 10:55 W 17 16.09 Fair CLR 16.9 3.7 42% 76.53 0.0
07 10:35 SW 15 16.09 Fair CLR 15.8 3.6 44% 76.53 0.0
07 10:15 SW 15 16.09 Fair CLR 15.7 3.5 44% 76.56 0.0
07 09:55 SW 13 G 26 16.09 Fair CLR 14.9 3.5 47% 76.58 0.0
07 09:35 SW 9 16.09 Fair CLR 14.2 3.7 50% 76.58 0.0
07 09:15 W 9 16.09 Fair CLR 13.3 4.4 55% 76.61 0.0
07 08:55 SW 9 16.09 Fair CLR 12.4 4.9 60% 76.61 0.0
07 08:35 W 11 16.09 Fair CLR 11.6 5.1 65% 76.63 0.0
07 08:15 W 9 16.09 Fair CLR 10.1 5.1 71% 76.63 0.0
07 07:55 W 9 16.09 Fair CLR 8.7 4.3 74% 7 76.61 0.0
07 07:35 W 7 16.09 Fair CLR 7.3 4.2 81% 6 76.61 0.0
07 07:15 SW 6 16.09 Fair CLR 5.6 3.4 86% 76.58 0.0
07 06:55 SW 7 16.09 Fair CLR 4.5 2.4 10.6 4.3 86% 3 76.58 0.0
07 06:35 SW 6 16.09 Fair CLR 5.1 2.4 83% 76.56 0.0
07 06:15 Calm 16.09 Mostly Cloudy BKN050 6.5 3.4 81% 76.56 0.0
07 05:55 NW 7 16.09 Overcast OVC050 7.5 3.5 76% 6 76.56 0.0
07 05:35 W 9 16.09 Overcast OVC050 7.5 3.4 76% 6 76.56 0.0
07 05:15 NW 6 16.09 Overcast OVC050 8.7 3.6 71% 76.56 0.0
07 04:55 NW 7 16.09 Overcast OVC060 9.3 3.3 66% 9 76.56 0.0
07 04:35 NW 7 16.09 Overcast OVC060 8.6 3.3 70% 8 76.58 0.0
07 04:15 NW 6 16.09 Mostly Cloudy BKN060 7.4 2.6 72% 76.56 0.0
07 03:55 NW 7 16.09 Partly Cloudy SCT060 8.5 2.4 66% 8 76.56 0.0
07 03:35 NW 9 16.09 Fair CLR 9.1 2.5 64% 8 76.56 0.0
07 03:15 NW 6 16.09 Partly Cloudy SCT110 10.4 2.6 59% 76.56 0.0
07 02:55 N 7 16.09 Fair CLR 10.3 2.5 59% 76.56 0.0
07 02:35 NW 7 16.09 Partly Cloudy SCT120 9.5 3.2 65% 9 76.58 0.0
07 02:15 NW 9 16.09 Mostly Cloudy BKN110 9.5 4.1 69% 8 76.58 0.0
07 01:55 W 7 16.09 Overcast OVC100 9.8 4.1 68% 9 76.61 0.0
07 01:35 Calm 16.09 Overcast OVC100 9.4 3.6 67% 76.58 0.0
07 01:15 Calm 16.09 Overcast OVC100 10.1 2.9 61% 76.58 0.0
07 00:55 Calm 16.09 Mostly Cloudy BKN110 9.8 2.8 16.7 8.9 62% 76.56 0.0
07 00:35 N 6 16.09 Partly Cloudy SCT065 10.4 2.6 59% 76.58 0.0
07 00:15 N 11 16.09 Overcast OVC065 12 2.6 53% 76.58 0.0
06 23:55 NW 6 16.09 Overcast OVC065 12.2 2.7 53% 76.61 0.0
06 23:35 N 11 16.09 Overcast OVC065 11.5 3.2 57% 76.58 0.0
06 23:15 NW 6 16.09 Overcast OVC065 11 3 58% 76.61 0.0
06 22:55 W 7 16.09 Overcast OVC065 10 3.1 63% 9 76.58 0.0
06 22:35 NW 7 16.09 Mostly Cloudy BKN065 9.2 2.5 63% 8 76.53 0.0
06 22:15 NE 11 16.09 Partly Cloudy SCT065 9.9 2.6 61% 9 76.45 0.0
06 21:55 NE 13 16.09 Overcast OVC065 10.5 2.5 58% 76.45 0.0
06 21:35 NE 9 16.09 Mostly Cloudy BKN065 9.6 2.4 61% 9 76.45 0.0
06 21:15 N 11 16.09 Partly Cloudy SCT065 10.4 2.1 57% 76.45 0.0
06 20:55 NE 13 16.09 Fair CLR 11.6 2.1 52% 76.43 0.0
06 20:35 NE 13 16.09 Partly Cloudy SCT060 13.1 2 47% 76.4 0.0
06 20:15 N 20 16.09 Mostly Cloudy BKN060 14.5 1.9 43% 76.4 0.0
06 19:55 NE 24 16.09 Mostly Cloudy BKN070 15.2 2.1 41% 76.38 0.0
06 19:35 NE 22 16.09 Mostly Cloudy BKN070 15.9 2.2 40% 76.35 0.0
06 19:15 NE 26 16.09 Partly Cloudy SCT060 16.5 2.1 38% 76.35 0.0
06 18:55 NE 26 16.09 Mostly Cloudy BKN060 16.3 1.8 18.6 14.1 38% 76.35 0.0
06 18:35 NE 26 16.09 Overcast OVC060 16.7 1.6 36% 76.35 0.0
06 18:15 NE 22 16.09 Overcast OVC060 17.8 2 35% 76.33 0.0
06 17:55 NE 22 G 31 16.09 Mostly Cloudy BKN060 17 2 37% 76.33 0.0
06 17:35 NE 13 G 33 16.09 Partly Cloudy SCT060 17.9 2.2 35% 76.3 0.0
06 17:15 N 22 16.09 Partly Cloudy SCT060 17.8 2.4 36% 76.3 0.0
06 16:55 N 15 16.09 Partly Cloudy SCT060 18.1 2.4 35% 76.3 0.0
06 16:35 E 17 G 28 16.09 Partly Cloudy SCT055 SCT120 17.8 2.7 37% 76.3 0.0
06 16:15 NE 15 G 31 16.09 Partly Cloudy SCT120 17.4 2.2 36% 76.3 0.0
06 15:55 E 20 G 31 16.09 Partly Cloudy SCT120 17.8 2.7 37% 76.33 0.0
06 15:35 N 30 G 37 16.09 Partly Cloudy SCT050 SCT120 17.5 2.2 36% 76.33 0.0
06 15:15 NE 28 G 33 16.09 Mostly Cloudy BKN050 BKN120 16.5 2 38% 76.35 0.0
06 14:55 E 24 G 37 16.09 Overcast BKN050 OVC110 16.4 2.4 39% 76.38 0.0
06 14:35 E 20 16.09 Overcast BKN048 OVC110 15.6 2.8 42% 76.38 0.0
06 14:15 NE 19 16.09 Overcast OVC046 15.8 3 43% 76.38 0.0
06 13:55 NE 22 G 31 16.09 Overcast OVC044 14.7 2.6 44% 76.4 0.0
06 13:35 NE 17 16.09 Overcast OVC046 14.9 3 45% 76.43 0.0
06 13:15 NE 24 16.09 Overcast OVC044 14.6 2.9 46% 76.45 0.0
06 12:55 NE 22 G 33 16.09 Overcast OVC042 14.3 2.8 16.3 8.2 46% 76.45 0.0
06 12:35 NE 26 16.09 Overcast OVC042 14.7 2.8 45% 76.45 0.0
06 12:15 E 30 G 35 16.09 Overcast BKN042 OVC120 14.8 2.7 44% 76.43 0.0
06 11:55 NE 28 G 39 16.09 Partly Cloudy SCT040 SCT120 14.3 2.8 46% 76.45 0.0
06 11:35 E 24 G 35 16.09 Partly Cloudy SCT035 SCT120 14.1 3 47% 76.43 0.0
06 11:15 NE 28 G 39 16.09 Fair CLR 14.1 3.4 49% 76.43 0.0
06 10:55 NE 28 16.09 Partly Cloudy SCT033 SCT120 13.2 2.6 49% 76.4 0.0
06 10:35 NE 20 16.09 Partly Cloudy SCT033 SCT120 12.8 3.1 52% 76.4 0.0
06 10:15 NE 33 16.09 Partly Cloudy and Breezy SCT120 12.6 2.6 51% 76.4 0.0
06 09:55 NE 30 16.09 Partly Cloudy SCT065 SCT120 12 2.3 52% 76.4 0.0
06 09:35 NE 30 16.09 Partly Cloudy SCT065 11.3 2.2 54% 76.43 0.0
06 09:15 NE 30 16.09 Partly Cloudy SCT039 10.5 2.5 58% 76.43 0.0
06 08:55 NE 30 G 39 16.09 Partly Cloudy SCT033 SCT040 9.6 2.7 62% 6 76.4 0.0
06 08:35 NE 28 16.09 Partly Cloudy SCT033 SCT060 9 2.8 65% 6 76.4 0.0
06 08:15 NE 28 16.09 Mostly Cloudy SCT028 BKN060 8.6 2.9 68% 5 76.4 0.0
06 07:55 NE 26 G 33 16.09 Mostly Cloudy SCT030 BKN060 8.5 3 69% 5 76.4 0.0
06 07:35 NE 26 16.09 Overcast OVC060 8.5 3.2 70% 5 76.38 0.0
06 07:15 N 30 16.09 Overcast SCT030 OVC050 8.3 3.5 72% 5 76.35 0.0
06 06:55 N 30 16.09 Overcast BKN030 OVC050 8.3 3.7 9.4 8.3 73% 5 76.33 0.0
06 06:35 NE 24 16.09 Overcast SCT032 SCT046 OVC050 8.3 3.8 74% 5 76.33 0.0
06 06:15 NE 28 16.09 Overcast SCT031 SCT035 OVC050 8.4 4 74% 5 76.28 0.0
06 05:55 N 24 16.09 Overcast SCT025 SCT030 OVC048 8.8 4.1 73% 6 76.28 0.0
06 05:35 N 22 16.09 Overcast SCT028 OVC048 9.3 4.7 73% 7 76.28 0.0
06 05:15 NE 20 16.09 Overcast OVC050 9.3 4.8 74% 7 76.25 0.0
06 04:55 N 20 16.09 Overcast OVC050 9.4 4.6 72% 7 76.28 0.0
06 04:35 N 20 16.09 Overcast OVC048 9.3 4.7 73% 7 76.25 0.0
06 04:15 N 20 16.09 Overcast OVC046 9.4 4.5 72% 7 76.23 0.0
06 03:55 N 19 16.09 Overcast OVC044 9 4 71% 7 76.2 0.0
06 03:35 N 24 16.09 Overcast OVC044 9.4 4.4 71% 7 76.15 0.0
06 03:15 N 15 16.09 Overcast OVC042 9.1 4.2 72% 7 76.17 0.0
06 02:55 N 17 16.09 Overcast OVC042 9 4.2 72% 7 76.2 0.0
06 02:35 N 17 16.09 Overcast OVC042 9 4 71% 7 76.2 0.0
06 02:15 N 20 16.09 Overcast OVC040 9 4 71% 6 76.17 0.0
06 01:55 NE 20 16.09 Overcast OVC040 9.1 3.8 70% 6 76.12 0.0
06 01:35 NE 20 16.09 Overcast OVC040 9.1 3.6 69% 6 76.12 0.0
06 01:15 NE 22 16.09 Overcast OVC040 9.1 3.4 68% 6 76.1 0.0
06 00:55 NE 22 16.09 Overcast OVC040 9.2 3.3 11.2 9.2 67% 6 76.1 0.0
06 00:35 NE 19 16.09 Overcast OVC040 9 3 66% 7 76.12 0.0
06 00:15 NE 20 16.09 Overcast OVC040 9.4 3.3 66% 7 76.1 0.0
05 23:55 NE 22 16.09 Overcast OVC040 9.4 3.3 66% 7 76.1 0.0
05 23:35 NE 20 16.09 Overcast OVC038 9.4 3.8 68% 7 76.1 0.0
05 23:15 NE 19 16.09 Overcast OVC036 9.4 4.3 71% 7 76.07 0.0
05 22:55 NE 22 16.09 Overcast OVC034 9.5 4.3 70% 7 76.1 0.0
05 22:35 NE 31 16.09 Overcast OVC030 9.4 4.1 70% 6 76.07 0.0
05 22:15 NE 31 G 41 16.09 Overcast OVC030 9.6 3.9 68% 6 76.05 0.0
05 21:55 NE 31 16.09 Overcast BKN022 OVC028 9.7 5 73% 6 76.02 0.0
05 21:35 NE 30 G 37 16.09 Overcast OVC022 9.8 5.1 73% 7 76 0.0
05 21:15 NE 31 16.09 Overcast OVC020 10 5.2 72% 7 76 0.0
05 20:55 NE 24 16.09 Overcast OVC024 10.2 5.2 71% 76 0.0
05 20:35 NE 24 G 33 16.09 Overcast OVC024 10.4 5 69% 76 0.0
05 20:15 NE 31 G 37 16.09 Overcast OVC024 10.6 4.9 68% 75.97 0.0
05 19:55 NE 24 16.09 Overcast OVC026 10.7 4.8 67% 75.97 0.0
05 19:35 N 24 16.09 Overcast OVC026 10.9 4.7 66% 75.95 0.0
05 19:15 NE 28 16.09 Overcast OVC028 11 4.6 65% 75.92 0.0
05 18:55 NE 33 16.09 Overcast and Breezy OVC028 11.2 4.7 12.6 9.6 65% 75.9 0.0
05 18:35 NE 26 16.09 Overcast OVC028 11.5 5 65% 75.87 0.0
05 18:15 NE 22 16.09 Overcast OVC028 11.5 4.8 64% 75.87 0.0
05 17:55 NE 30 G 37 16.09 Overcast OVC026 11.6 4.9 64% 75.9 0.0
05 17:35 NE 35 16.09 Overcast and Breezy OVC026 11.6 4.9 64% 75.9 0.0
05 17:15 NE 35 16.09 Overcast and Breezy OVC028 11.8 5.2 64% 75.84 0.0
05 16:55 NE 30 16.09 Overcast OVC028 12.2 5.1 62% 75.87 0.0
05 16:35 NE 30 G 35 16.09 Overcast OVC026 12.2 5.2 63% 75.87 0.0
05 16:15 NE 37 16.09 Overcast and Breezy OVC026 12.2 5.2 63% 75.84 0.0
05 15:55 N 37 G 50 16.09 Overcast and Breezy OVC024 12.3 5.5 63% 75.79 0.0
05 15:35 N 46 G 57 16.09 Overcast and Windy OVC022 12.1 5.7 65% 75.79 0.0
05 15:15 N 41 G 50 16.09 Overcast and Breezy OVC022 12 6.1 67% 75.82 0.0
05 14:55 N 37 G 54 16.09 Overcast and Breezy OVC022 11.8 6.6 71% 75.82 0.0
05 14:35 N 46 G 54 16.09 Overcast and Windy OVC022 11.4 6.6 73% 75.82 0.0
05 14:15 N 39 G 50 16.09 Overcast and Breezy BKN014 OVC020 10.8 6.9 77% 75.84 0.0
05 13:55 N 41 16.09 Overcast and Breezy OVC014 10.6 7.2 80% 75.82 0.0
05 13:35 N 37 G 48 11.27 Overcast and Breezy OVC012 10 7.7 86% 6 75.84 0.0
05 13:15 N 35 G 46 8.05 Fog/Mist and Breezy OVC014 9.8 8 89% 6 75.84 0.0
05 12:55 N 37 G 50 5.63 Fog/Mist and Breezy OVC009 9.8 8.5 17.1 9.7 92% 6 75.82 0.0
05 12:35 N 44 G 56 6.44 Fog/Mist and Windy OVC011 10.6 8.3 86% 75.74 0.0
05 12:15 N 43 G 50 11.27 Overcast and Windy OVC014 11.4 8.4 82% 75.72 0.0
05 11:55 N 50 G 57 16.09 Overcast and Windy OVC016 11.3 7.4 77% 75.72 0.0
05 11:35 N 41 G 54 16.09 Overcast and Breezy OVC016 11.6 7.1 74% 75.72 0.0
05 11:15 N 43 G 56 16.09 Overcast and Windy OVC016 12 7.2 73% 75.67 0.0
05 10:55 N 43 G 57 16.09 Overcast and Windy OVC018 12.4 7.3 71% 75.62 0.0
05 10:35 N 41 G 57 16.09 Overcast and Breezy OVC020 12.7 7.3 70% 75.62 0.0
05 10:15 N 39 G 50 16.09 Overcast and Breezy OVC018 13.2 7.1 67% 75.54 0.0
05 09:55 N 37 G 52 16.09 Overcast and Breezy OVC018 13.2 7.3 68% 75.51 0.0
05 09:35 N 43 G 56 16.09 Overcast and Windy OVC018 13.1 7.3 68% 75.49 0.0
05 09:15 N 43 G 56 16.09 Overcast and Windy OVC018 13.3 7.9 70% 75.49 0.0
05 08:55 N 44 G 52 16.09 Overcast and Windy OVC016 13.6 8.8 73% 75.44 0.0
05 08:35 N 39 G 50 16.09 Overcast and Breezy OVC014 13.7 9.2 74% 75.41 0.0
Date Time (cdt) Wind (kph) Vis. (km) Weather Sky Cond. Air Dwpt Max. Min. Relative Humidity Wind Chill (°C) Heat Index (°C) altimeter (cm) sea level (mb) 1 hr 3 hr 6 hr
6 hour
Temperature (ºC) Pressure Precipitation (cm)